sensor_id;sensor_type;location;lat;lon;timestamp;P1;durP1;ratioP1;P2;durP2;ratioP2
21233;SDS011;10774;42.178;26.578;2023-08-01T00:00:52;7.15;;;5.82;;
21233;SDS011;10774;42.178;26.578;2023-08-01T00:03:18;7.35;;;6.75;;
21233;SDS011;10774;42.178;26.578;2023-08-01T00:05:44;7.43;;;6.72;;
21233;SDS011;10774;42.178;26.578;2023-08-01T00:08:13;10.52;;;7.15;;
21233;SDS011;10774;42.178;26.578;2023-08-01T00:10:41;8.07;;;7.38;;
21233;SDS011;10774;42.178;26.578;2023-08-01T00:13:07;7.93;;;7.00;;
21233;SDS011;10774;42.178;26.578;2023-08-01T00:15:34;7.75;;;6.95;;
21233;SDS011;10774;42.178;26.578;2023-08-01T00:18:00;7.35;;;6.40;;
21233;SDS011;10774;42.178;26.578;2023-08-01T00:20:25;9.75;;;6.90;;
21233;SDS011;10774;42.178;26.578;2023-08-01T00:22:50;7.57;;;6.85;;
21233;SDS011;10774;42.178;26.578;2023-08-01T00:25:16;7.88;;;7.20;;
21233;SDS011;10774;42.178;26.578;2023-08-01T00:27:42;7.88;;;7.18;;
21233;SDS011;10774;42.178;26.578;2023-08-01T00:30:08;8.52;;;7.78;;
21233;SDS011;10774;42.178;26.578;2023-08-01T00:32:34;8.60;;;7.80;;
21233;SDS011;10774;42.178;26.578;2023-08-01T00:35:00;7.72;;;7.03;;
21233;SDS011;10774;42.178;26.578;2023-08-01T00:37:25;7.47;;;6.88;;
21233;SDS011;10774;42.178;26.578;2023-08-01T00:39:51;7.75;;;7.07;;
21233;SDS011;10774;42.178;26.578;2023-08-01T00:42:16;7.75;;;7.05;;
21233;SDS011;10774;42.178;26.578;2023-08-01T00:44:42;8.00;;;7.30;;
21233;SDS011;10774;42.178;26.578;2023-08-01T00:47:07;8.10;;;7.30;;
21233;SDS011;10774;42.178;26.578;2023-08-01T00:49:34;7.75;;;7.05;;
21233;SDS011;10774;42.178;26.578;2023-08-01T00:52:00;7.70;;;7.05;;
21233;SDS011;10774;42.178;26.578;2023-08-01T00:54:25;8.10;;;7.30;;
21233;SDS011;10774;42.178;26.578;2023-08-01T00:56:51;8.70;;;7.13;;
21233;SDS011;10774;42.178;26.578;2023-08-01T00:59:16;7.80;;;6.85;;
21233;SDS011;10774;42.178;26.578;2023-08-01T01:01:42;8.63;;;6.93;;
21233;SDS011;10774;42.178;26.578;2023-08-01T01:04:07;6.93;;;6.32;;
21233;SDS011;10774;42.178;26.578;2023-08-01T01:09:15;7.40;;;6.80;;
21233;SDS011;10774;42.178;26.578;2023-08-01T01:11:45;7.25;;;6.65;;
21233;SDS011;10774;42.178;26.578;2023-08-01T01:14:11;9.25;;;6.80;;
21233;SDS011;10774;42.178;26.578;2023-08-01T01:16:37;8.70;;;8.00;;
21233;SDS011;10774;42.178;26.578;2023-08-01T01:19:05;8.32;;;7.50;;
21233;SDS011;10774;42.178;26.578;2023-08-01T01:21:33;8.40;;;7.57;;
21233;SDS011;10774;42.178;26.578;2023-08-01T01:24:17;8.20;;;7.40;;
21233;SDS011;10774;42.178;26.578;2023-08-01T01:26:44;7.40;;;6.80;;
21233;SDS011;10774;42.178;26.578;2023-08-01T01:29:11;8.10;;;7.40;;
21233;SDS011;10774;42.178;26.578;2023-08-01T01:31:38;7.57;;;6.95;;
21233;SDS011;10774;42.178;26.578;2023-08-01T01:34:04;7.43;;;6.72;;
21233;SDS011;10774;42.178;26.578;2023-08-01T01:36:29;7.82;;;7.03;;
21233;SDS011;10774;42.178;26.578;2023-08-01T01:38:55;7.53;;;6.82;;
21233;SDS011;10774;42.178;26.578;2023-08-01T01:41:21;7.68;;;7.07;;
21233;SDS011;10774;42.178;26.578;2023-08-01T01:43:47;7.40;;;6.70;;
21233;SDS011;10774;42.178;26.578;2023-08-01T01:46:13;7.18;;;6.45;;
21233;SDS011;10774;42.178;26.578;2023-08-01T01:48:38;10.32;;;7.07;;
21233;SDS011;10774;42.178;26.578;2023-08-01T01:51:03;7.80;;;7.10;;
21233;SDS011;10774;42.178;26.578;2023-08-01T01:53:29;11.70;;;10.60;;
21233;SDS011;10774;42.178;26.578;2023-08-01T01:55:54;12.40;;;11.13;;
21233;SDS011;10774;42.178;26.578;2023-08-01T01:58:20;21.95;;;19.95;;
21233;SDS011;10774;42.178;26.578;2023-08-01T02:00:45;21.05;;;18.80;;
21233;SDS011;10774;42.178;26.578;2023-08-01T02:03:10;29.85;;;27.13;;
21233;SDS011;10774;42.178;26.578;2023-08-01T02:05:39;33.20;;;30.17;;
21233;SDS011;10774;42.178;26.578;2023-08-01T02:08:04;25.00;;;22.80;;
21233;SDS011;10774;42.178;26.578;2023-08-01T02:10:30;9.15;;;8.20;;
21233;SDS011;10774;42.178;26.578;2023-08-01T02:12:55;8.18;;;7.45;;
21233;SDS011;10774;42.178;26.578;2023-08-01T02:15:21;13.52;;;12.13;;
21233;SDS011;10774;42.178;26.578;2023-08-01T02:17:46;13.50;;;12.32;;
21233;SDS011;10774;42.178;26.578;2023-08-01T02:20:12;13.20;;;12.05;;
21233;SDS011;10774;42.178;26.578;2023-08-01T02:22:37;13.77;;;12.32;;
21233;SDS011;10774;42.178;26.578;2023-08-01T02:25:03;12.40;;;11.30;;
21233;SDS011;10774;42.178;26.578;2023-08-01T02:27:28;9.70;;;8.90;;
21233;SDS011;10774;42.178;26.578;2023-08-01T02:29:54;8.55;;;7.85;;
21233;SDS011;10774;42.178;26.578;2023-08-01T02:32:19;8.40;;;7.68;;
21233;SDS011;10774;42.178;26.578;2023-08-01T02:34:45;8.77;;;7.85;;
21233;SDS011;10774;42.178;26.578;2023-08-01T02:37:10;12.38;;;7.75;;
21233;SDS011;10774;42.178;26.578;2023-08-01T02:39:35;9.38;;;8.20;;
21233;SDS011;10774;42.178;26.578;2023-08-01T02:42:01;9.02;;;8.13;;
21233;SDS011;10774;42.178;26.578;2023-08-01T02:44:27;8.35;;;7.55;;
21233;SDS011;10774;42.178;26.578;2023-08-01T02:46:53;8.85;;;8.05;;
21233;SDS011;10774;42.178;26.578;2023-08-01T02:49:19;9.13;;;8.18;;
21233;SDS011;10774;42.178;26.578;2023-08-01T02:51:44;8.38;;;7.57;;
21233;SDS011;10774;42.178;26.578;2023-08-01T02:54:09;9.35;;;8.13;;
21233;SDS011;10774;42.178;26.578;2023-08-01T02:56:35;9.95;;;9.02;;
21233;SDS011;10774;42.178;26.578;2023-08-01T02:59:05;10.30;;;9.02;;
21233;SDS011;10774;42.178;26.578;2023-08-01T03:01:33;8.68;;;7.95;;
21233;SDS011;10774;42.178;26.578;2023-08-01T03:04:02;8.35;;;7.65;;
21233;SDS011;10774;42.178;26.578;2023-08-01T03:06:29;9.10;;;8.32;;
21233;SDS011;10774;42.178;26.578;2023-08-01T03:08:54;9.00;;;8.10;;
21233;SDS011;10774;42.178;26.578;2023-08-01T03:11:20;9.40;;;8.60;;
21233;SDS011;10774;42.178;26.578;2023-08-01T03:13:45;9.93;;;9.05;;
21233;SDS011;10774;42.178;26.578;2023-08-01T03:16:11;9.35;;;8.55;;
21233;SDS011;10774;42.178;26.578;2023-08-01T03:18:36;9.13;;;8.40;;
21233;SDS011;10774;42.178;26.578;2023-08-01T03:21:01;9.50;;;8.70;;
21233;SDS011;10774;42.178;26.578;2023-08-01T03:23:29;9.98;;;8.82;;
21233;SDS011;10774;42.178;26.578;2023-08-01T03:25:54;9.57;;;8.70;;
21233;SDS011;10774;42.178;26.578;2023-08-01T03:28:20;9.25;;;7.93;;
21233;SDS011;10774;42.178;26.578;2023-08-01T03:30:45;9.10;;;8.20;;
21233;SDS011;10774;42.178;26.578;2023-08-01T03:33:14;9.75;;;8.70;;
21233;SDS011;10774;42.178;26.578;2023-08-01T03:35:40;9.20;;;8.30;;
21233;SDS011;10774;42.178;26.578;2023-08-01T03:38:05;9.63;;;8.60;;
21233;SDS011;10774;42.178;26.578;2023-08-01T03:40:31;9.13;;;7.82;;
21233;SDS011;10774;42.178;26.578;2023-08-01T03:42:56;9.45;;;8.10;;
21233;SDS011;10774;42.178;26.578;2023-08-01T03:45:22;9.35;;;8.05;;
21233;SDS011;10774;42.178;26.578;2023-08-01T03:47:47;13.35;;;8.07;;
21233;SDS011;10774;42.178;26.578;2023-08-01T03:50:12;13.15;;;8.43;;
21233;SDS011;10774;42.178;26.578;2023-08-01T03:52:38;10.80;;;8.32;;
21233;SDS011;10774;42.178;26.578;2023-08-01T03:55:04;8.57;;;7.72;;
21233;SDS011;10774;42.178;26.578;2023-08-01T03:57:30;8.38;;;7.55;;
21233;SDS011;10774;42.178;26.578;2023-08-01T03:59:58;8.93;;;8.13;;
21233;SDS011;10774;42.178;26.578;2023-08-01T04:02:24;8.07;;;7.38;;
21233;SDS011;10774;42.178;26.578;2023-08-01T04:04:49;13.98;;;8.27;;
21233;SDS011;10774;42.178;26.578;2023-08-01T04:07:15;10.85;;;7.80;;
21233;SDS011;10774;42.178;26.578;2023-08-01T04:09:40;9.68;;;7.93;;
21233;SDS011;10774;42.178;26.578;2023-08-01T04:12:05;9.32;;;8.38;;
21233;SDS011;10774;42.178;26.578;2023-08-01T04:14:32;9.07;;;8.27;;
21233;SDS011;10774;42.178;26.578;2023-08-01T04:16:58;7.82;;;7.20;;
21233;SDS011;10774;42.178;26.578;2023-08-01T04:19:24;8.20;;;7.40;;
21233;SDS011;10774;42.178;26.578;2023-08-01T04:21:50;9.10;;;7.90;;
21233;SDS011;10774;42.178;26.578;2023-08-01T04:24:15;8.75;;;7.82;;
21233;SDS011;10774;42.178;26.578;2023-08-01T04:26:41;9.80;;;7.72;;
21233;SDS011;10774;42.178;26.578;2023-08-01T04:29:06;9.35;;;8.13;;
21233;SDS011;10774;42.178;26.578;2023-08-01T04:31:32;9.20;;;8.00;;
21233;SDS011;10774;42.178;26.578;2023-08-01T04:33:57;9.85;;;8.27;;
21233;SDS011;10774;42.178;26.578;2023-08-01T04:36:23;9.93;;;9.00;;
21233;SDS011;10774;42.178;26.578;2023-08-01T04:38:48;10.77;;;8.77;;
21233;SDS011;10774;42.178;26.578;2023-08-01T04:41:14;9.23;;;8.30;;
21233;SDS011;10774;42.178;26.578;2023-08-01T04:43:39;8.55;;;7.85;;
21233;SDS011;10774;42.178;26.578;2023-08-01T04:46:04;10.07;;;8.40;;
21233;SDS011;10774;42.178;26.578;2023-08-01T04:48:30;9.05;;;7.70;;
21233;SDS011;10774;42.178;26.578;2023-08-01T04:50:55;9.43;;;8.45;;
21233;SDS011;10774;42.178;26.578;2023-08-01T04:53:21;10.00;;;7.97;;
21233;SDS011;10774;42.178;26.578;2023-08-01T04:55:46;10.32;;;8.60;;
21233;SDS011;10774;42.178;26.578;2023-08-01T04:58:11;11.20;;;8.93;;
21233;SDS011;10774;42.178;26.578;2023-08-01T05:00:37;11.20;;;8.50;;
21233;SDS011;10774;42.178;26.578;2023-08-01T05:03:05;10.35;;;7.72;;
21233;SDS011;10774;42.178;26.578;2023-08-01T05:05:30;11.27;;;8.55;;
21233;SDS011;10774;42.178;26.578;2023-08-01T05:07:56;8.85;;;7.95;;
21233;SDS011;10774;42.178;26.578;2023-08-01T05:10:21;8.60;;;7.80;;
21233;SDS011;10774;42.178;26.578;2023-08-01T05:12:46;11.00;;;8.50;;
21233;SDS011;10774;42.178;26.578;2023-08-01T05:15:12;9.10;;;8.20;;
21233;SDS011;10774;42.178;26.578;2023-08-01T05:17:38;8.45;;;7.72;;
21233;SDS011;10774;42.178;26.578;2023-08-01T05:20:03;9.95;;;8.40;;
21233;SDS011;10774;42.178;26.578;2023-08-01T05:22:29;15.23;;;9.35;;
21233;SDS011;10774;42.178;26.578;2023-08-01T05:24:54;11.23;;;9.45;;
21233;SDS011;10774;42.178;26.578;2023-08-01T05:27:20;13.10;;;8.07;;
21233;SDS011;10774;42.178;26.578;2023-08-01T05:29:45;10.48;;;8.35;;
21233;SDS011;10774;42.178;26.578;2023-08-01T05:32:11;13.35;;;8.07;;
21233;SDS011;10774;42.178;26.578;2023-08-01T05:34:36;15.95;;;9.68;;
21233;SDS011;10774;42.178;26.578;2023-08-01T05:37:01;14.60;;;9.98;;
21233;SDS011;10774;42.178;26.578;2023-08-01T05:39:27;12.88;;;8.77;;
21233;SDS011;10774;42.178;26.578;2023-08-01T05:41:53;11.18;;;9.05;;
21233;SDS011;10774;42.178;26.578;2023-08-01T05:44:18;11.52;;;9.40;;
21233;SDS011;10774;42.178;26.578;2023-08-01T05:46:44;13.80;;;8.52;;
21233;SDS011;10774;42.178;26.578;2023-08-01T05:49:09;13.70;;;9.38;;
21233;SDS011;10774;42.178;26.578;2023-08-01T05:51:34;14.48;;;8.25;;
21233;SDS011;10774;42.178;26.578;2023-08-01T05:54:00;8.90;;;8.10;;
21233;SDS011;10774;42.178;26.578;2023-08-01T05:56:25;10.63;;;7.72;;
21233;SDS011;10774;42.178;26.578;2023-08-01T05:58:51;11.43;;;7.90;;
21233;SDS011;10774;42.178;26.578;2023-08-01T06:01:16;9.55;;;7.25;;
21233;SDS011;10774;42.178;26.578;2023-08-01T06:03:42;9.45;;;7.53;;
21233;SDS011;10774;42.178;26.578;2023-08-01T06:06:08;10.32;;;8.68;;
21233;SDS011;10774;42.178;26.578;2023-08-01T06:08:33;9.55;;;8.40;;
21233;SDS011;10774;42.178;26.578;2023-08-01T06:10:59;10.20;;;8.05;;
21233;SDS011;10774;42.178;26.578;2023-08-01T06:13:24;9.50;;;7.38;;
21233;SDS011;10774;42.178;26.578;2023-08-01T06:15:50;10.60;;;7.65;;
21233;SDS011;10774;42.178;26.578;2023-08-01T06:18:15;8.70;;;7.05;;
21233;SDS011;10774;42.178;26.578;2023-08-01T06:20:40;14.98;;;8.45;;
21233;SDS011;10774;42.178;26.578;2023-08-01T06:23:06;19.60;;;8.02;;
21233;SDS011;10774;42.178;26.578;2023-08-01T06:25:31;10.85;;;7.28;;
21233;SDS011;10774;42.178;26.578;2023-08-01T06:27:57;8.40;;;7.60;;
21233;SDS011;10774;42.178;26.578;2023-08-01T06:30:22;8.20;;;7.40;;
21233;SDS011;10774;42.178;26.578;2023-08-01T06:32:48;8.85;;;7.38;;
21233;SDS011;10774;42.178;26.578;2023-08-01T06:35:13;59.50;;;9.52;;
21233;SDS011;10774;42.178;26.578;2023-08-01T06:37:39;7.90;;;7.20;;
21233;SDS011;10774;42.178;26.578;2023-08-01T06:40:04;8.52;;;7.60;;
21233;SDS011;10774;42.178;26.578;2023-08-01T06:42:30;8.23;;;7.15;;
21233;SDS011;10774;42.178;26.578;2023-08-01T06:44:56;9.05;;;7.40;;
21233;SDS011;10774;42.178;26.578;2023-08-01T06:47:21;9.13;;;8.32;;
21233;SDS011;10774;42.178;26.578;2023-08-01T06:49:46;7.82;;;7.13;;
21233;SDS011;10774;42.178;26.578;2023-08-01T06:52:12;9.60;;;8.10;;
21233;SDS011;10774;42.178;26.578;2023-08-01T06:54:37;11.00;;;7.60;;
21233;SDS011;10774;42.178;26.578;2023-08-01T06:57:03;74.47;;;11.18;;
21233;SDS011;10774;42.178;26.578;2023-08-01T06:59:29;15.07;;;8.32;;
21233;SDS011;10774;42.178;26.578;2023-08-01T07:01:55;9.15;;;7.38;;
21233;SDS011;10774;42.178;26.578;2023-08-01T07:04:20;7.72;;;6.88;;
21233;SDS011;10774;42.178;26.578;2023-08-01T07:06:46;8.50;;;7.43;;
21233;SDS011;10774;42.178;26.578;2023-08-01T07:09:11;9.10;;;8.02;;
21233;SDS011;10774;42.178;26.578;2023-08-01T07:11:37;7.85;;;7.10;;
21233;SDS011;10774;42.178;26.578;2023-08-01T07:14:02;7.60;;;6.90;;
21233;SDS011;10774;42.178;26.578;2023-08-01T07:16:27;9.02;;;7.00;;
21233;SDS011;10774;42.178;26.578;2023-08-01T07:18:54;7.35;;;6.65;;
21233;SDS011;10774;42.178;26.578;2023-08-01T07:21:20;8.02;;;7.32;;
21233;SDS011;10774;42.178;26.578;2023-08-01T07:23:45;8.13;;;6.95;;
21233;SDS011;10774;42.178;26.578;2023-08-01T07:26:12;7.53;;;6.82;;
21233;SDS011;10774;42.178;26.578;2023-08-01T07:28:37;7.00;;;6.35;;
21233;SDS011;10774;42.178;26.578;2023-08-01T07:31:03;8.02;;;6.85;;
21233;SDS011;10774;42.178;26.578;2023-08-01T07:33:30;7.15;;;6.47;;
21233;SDS011;10774;42.178;26.578;2023-08-01T07:35:56;7.35;;;6.72;;
21233;SDS011;10774;42.178;26.578;2023-08-01T07:38:22;9.05;;;7.07;;
21233;SDS011;10774;42.178;26.578;2023-08-01T07:40:48;8.48;;;7.15;;
21233;SDS011;10774;42.178;26.578;2023-08-01T07:43:13;8.40;;;7.60;;
21233;SDS011;10774;42.178;26.578;2023-08-01T07:45:39;12.05;;;7.55;;
21233;SDS011;10774;42.178;26.578;2023-08-01T07:48:04;9.00;;;7.45;;
21233;SDS011;10774;42.178;26.578;2023-08-01T07:50:30;10.73;;;7.50;;
21233;SDS011;10774;42.178;26.578;2023-08-01T07:52:55;8.30;;;7.43;;
21233;SDS011;10774;42.178;26.578;2023-08-01T07:55:21;7.97;;;6.82;;
21233;SDS011;10774;42.178;26.578;2023-08-01T07:57:47;8.10;;;7.00;;
21233;SDS011;10774;42.178;26.578;2023-08-01T08:00:12;7.10;;;6.47;;
21233;SDS011;10774;42.178;26.578;2023-08-01T08:02:38;8.30;;;7.10;;
21233;SDS011;10774;42.178;26.578;2023-08-01T08:05:04;8.05;;;6.47;;
21233;SDS011;10774;42.178;26.578;2023-08-01T08:07:30;6.82;;;6.22;;
21233;SDS011;10774;42.178;26.578;2023-08-01T08:09:56;7.35;;;6.75;;
21233;SDS011;10774;42.178;26.578;2023-08-01T08:12:22;10.23;;;6.63;;
21233;SDS011;10774;42.178;26.578;2023-08-01T08:14:48;6.93;;;6.32;;
21233;SDS011;10774;42.178;26.578;2023-08-01T08:17:13;9.02;;;8.13;;
21233;SDS011;10774;42.178;26.578;2023-08-01T08:19:40;5.10;;;4.60;;
21233;SDS011;10774;42.178;26.578;2023-08-01T08:22:08;4.78;;;4.38;;
21233;SDS011;10774;42.178;26.578;2023-08-01T08:24:34;4.93;;;4.13;;
21233;SDS011;10774;42.178;26.578;2023-08-01T08:27:00;8.40;;;5.20;;
21233;SDS011;10774;42.178;26.578;2023-08-01T08:29:25;4.93;;;4.53;;
21233;SDS011;10774;42.178;26.578;2023-08-01T08:31:51;5.65;;;4.47;;
21233;SDS011;10774;42.178;26.578;2023-08-01T08:34:16;5.05;;;4.65;;
21233;SDS011;10774;42.178;26.578;2023-08-01T08:36:41;5.43;;;4.20;;
21233;SDS011;10774;42.178;26.578;2023-08-01T08:39:07;5.03;;;4.40;;
21233;SDS011;10774;42.178;26.578;2023-08-01T08:41:42;5.63;;;5.00;;
21233;SDS011;10774;42.178;26.578;2023-08-01T08:44:12;6.00;;;5.38;;
21233;SDS011;10774;42.178;26.578;2023-08-01T08:46:42;5.40;;;4.90;;
21233;SDS011;10774;42.178;26.578;2023-08-01T08:49:11;8.15;;;5.30;;
21233;SDS011;10774;42.178;26.578;2023-08-01T08:51:38;4.82;;;4.43;;
21233;SDS011;10774;42.178;26.578;2023-08-01T08:54:04;16.92;;;5.07;;
21233;SDS011;10774;42.178;26.578;2023-08-01T08:56:31;5.72;;;4.72;;
21233;SDS011;10774;42.178;26.578;2023-08-01T08:58:58;4.30;;;3.90;;
21233;SDS011;10774;42.178;26.578;2023-08-01T09:01:24;4.60;;;4.20;;
21233;SDS011;10774;42.178;26.578;2023-08-01T09:03:49;5.82;;;4.10;;
21233;SDS011;10774;42.178;26.578;2023-08-01T09:06:16;4.80;;;3.80;;
21233;SDS011;10774;42.178;26.578;2023-08-01T09:11:34;5.57;;;4.22;;
21233;SDS011;10774;42.178;26.578;2023-08-01T09:14:04;4.78;;;3.38;;
21233;SDS011;10774;42.178;26.578;2023-08-01T09:16:30;4.32;;;3.92;;
21233;SDS011;10774;42.178;26.578;2023-08-01T09:18:55;6.03;;;4.40;;
21233;SDS011;10774;42.178;26.578;2023-08-01T09:21:21;5.05;;;4.55;;
21233;SDS011;10774;42.178;26.578;2023-08-01T09:23:47;4.13;;;3.83;;
21233;SDS011;10774;42.178;26.578;2023-08-01T09:26:17;5.78;;;4.90;;
21233;SDS011;10774;42.178;26.578;2023-08-01T09:28:43;9.93;;;5.13;;
21233;SDS011;10774;42.178;26.578;2023-08-01T09:31:10;30.88;;;5.00;;
21233;SDS011;10774;42.178;26.578;2023-08-01T09:33:42;4.78;;;3.83;;
21233;SDS011;10774;42.178;26.578;2023-08-01T09:36:08;6.75;;;3.85;;
21233;SDS011;10774;42.178;26.578;2023-08-01T09:38:34;3.78;;;3.47;;
21233;SDS011;10774;42.178;26.578;2023-08-01T09:41:01;3.65;;;3.35;;
21233;SDS011;10774;42.178;26.578;2023-08-01T09:43:34;4.75;;;3.67;;
21233;SDS011;10774;42.178;26.578;2023-08-01T09:46:01;4.20;;;3.90;;
21233;SDS011;10774;42.178;26.578;2023-08-01T09:48:27;3.58;;;3.28;;
21233;SDS011;10774;42.178;26.578;2023-08-01T09:51:10;4.50;;;3.45;;
21233;SDS011;10774;42.178;26.578;2023-08-01T09:53:49;4.07;;;3.40;;
21233;SDS011;10774;42.178;26.578;2023-08-01T09:56:21;6.57;;;5.90;;
21233;SDS011;10774;42.178;26.578;2023-08-01T09:58:48;5.03;;;3.63;;
21233;SDS011;10774;42.178;26.578;2023-08-01T10:01:15;3.67;;;3.38;;
21233;SDS011;10774;42.178;26.578;2023-08-01T10:03:44;4.07;;;3.60;;
21233;SDS011;10774;42.178;26.578;2023-08-01T10:06:18;5.38;;;3.30;;
21233;SDS011;10774;42.178;26.578;2023-08-01T10:08:45;3.67;;;2.85;;
21233;SDS011;10774;42.178;26.578;2023-08-01T10:11:14;3.85;;;3.42;;
21233;SDS011;10774;42.178;26.578;2023-08-01T10:13:42;4.15;;;3.00;;
21233;SDS011;10774;42.178;26.578;2023-08-01T10:16:08;3.30;;;3.00;;
21233;SDS011;10774;42.178;26.578;2023-08-01T10:18:34;4.20;;;2.60;;
21233;SDS011;10774;42.178;26.578;2023-08-01T10:21:02;3.30;;;2.60;;
21233;SDS011;10774;42.178;26.578;2023-08-01T10:23:29;2.50;;;2.33;;
21233;SDS011;10774;42.178;26.578;2023-08-01T10:25:55;3.72;;;2.45;;
21233;SDS011;10774;42.178;26.578;2023-08-01T10:28:30;4.10;;;2.78;;
21233;SDS011;10774;42.178;26.578;2023-08-01T10:31:06;3.20;;;2.90;;
21233;SDS011;10774;42.178;26.578;2023-08-01T10:33:43;2.88;;;2.60;;
21233;SDS011;10774;42.178;26.578;2023-08-01T10:36:17;3.13;;;2.83;;
21233;SDS011;10774;42.178;26.578;2023-08-01T10:38:52;3.22;;;2.88;;
21233;SDS011;10774;42.178;26.578;2023-08-01T10:41:27;3.95;;;3.28;;
21233;SDS011;10774;42.178;26.578;2023-08-01T10:46:44;3.67;;;2.83;;
21233;SDS011;10774;42.178;26.578;2023-08-01T10:49:32;2.88;;;2.63;;
21233;SDS011;10774;42.178;26.578;2023-08-01T10:52:03;3.38;;;3.08;;
21233;SDS011;10774;42.178;26.578;2023-08-01T10:54:40;3.63;;;2.83;;
21233;SDS011;10774;42.178;26.578;2023-08-01T10:57:06;4.32;;;2.97;;
21233;SDS011;10774;42.178;26.578;2023-08-01T10:59:31;3.45;;;2.90;;
21233;SDS011;10774;42.178;26.578;2023-08-01T11:01:58;3.50;;;2.70;;
21233;SDS011;10774;42.178;26.578;2023-08-01T11:04:26;3.10;;;2.30;;
21233;SDS011;10774;42.178;26.578;2023-08-01T11:06:52;2.38;;;2.20;;
21233;SDS011;10774;42.178;26.578;2023-08-01T11:09:26;2.78;;;2.28;;
21233;SDS011;10774;42.178;26.578;2023-08-01T11:11:54;2.92;;;2.40;;
21233;SDS011;10774;42.178;26.578;2023-08-01T11:14:20;2.50;;;2.30;;
21233;SDS011;10774;42.178;26.578;2023-08-01T11:16:48;2.40;;;2.10;;
21233;SDS011;10774;42.178;26.578;2023-08-01T11:19:21;2.97;;;2.00;;
21233;SDS011;10774;42.178;26.578;2023-08-01T11:21:48;2.15;;;1.95;;
21233;SDS011;10774;42.178;26.578;2023-08-01T11:24:15;2.03;;;1.92;;
21233;SDS011;10774;42.178;26.578;2023-08-01T11:26:41;2.80;;;2.10;;
21233;SDS011;10774;42.178;26.578;2023-08-01T11:29:09;2.70;;;2.50;;
21233;SDS011;10774;42.178;26.578;2023-08-01T11:31:38;2.72;;;1.95;;
21233;SDS011;10774;42.178;26.578;2023-08-01T11:34:04;2.75;;;2.25;;
21233;SDS011;10774;42.178;26.578;2023-08-01T11:36:29;3.65;;;2.30;;
21233;SDS011;10774;42.178;26.578;2023-08-01T11:38:56;2.58;;;2.38;;
21233;SDS011;10774;42.178;26.578;2023-08-01T11:41:24;2.67;;;2.20;;
21233;SDS011;10774;42.178;26.578;2023-08-01T11:43:50;2.45;;;2.25;;
21233;SDS011;10774;42.178;26.578;2023-08-01T11:46:16;2.85;;;2.33;;
21233;SDS011;10774;42.178;26.578;2023-08-01T11:48:45;2.30;;;2.10;;
21233;SDS011;10774;42.178;26.578;2023-08-01T11:53:42;2.75;;;2.40;;
21233;SDS011;10774;42.178;26.578;2023-08-01T11:56:19;2.75;;;2.40;;
21233;SDS011;10774;42.178;26.578;2023-08-01T11:58:46;3.33;;;2.45;;
21233;SDS011;10774;42.178;26.578;2023-08-01T12:01:12;1.95;;;1.85;;
21233;SDS011;10774;42.178;26.578;2023-08-01T12:03:45;2.33;;;2.13;;
21233;SDS011;10774;42.178;26.578;2023-08-01T12:06:15;2.28;;;2.10;;
21233;SDS011;10774;42.178;26.578;2023-08-01T12:08:42;2.28;;;1.92;;
21233;SDS011;10774;42.178;26.578;2023-08-01T12:14:08;2.20;;;2.03;;
21233;SDS011;10774;42.178;26.578;2023-08-01T12:16:35;5.72;;;2.13;;
21233;SDS011;10774;42.178;26.578;2023-08-01T12:19:01;2.22;;;2.08;;
21233;SDS011;10774;42.178;26.578;2023-08-01T12:21:33;2.78;;;2.13;;
21233;SDS011;10774;42.178;26.578;2023-08-01T12:24:00;3.00;;;1.75;;
21233;SDS011;10774;42.178;26.578;2023-08-01T12:26:26;2.10;;;2.00;;
21233;SDS011;10774;42.178;26.578;2023-08-01T12:28:51;2.10;;;1.90;;
21233;SDS011;10774;42.178;26.578;2023-08-01T12:31:17;2.20;;;2.00;;
21233;SDS011;10774;42.178;26.578;2023-08-01T12:33:44;1.92;;;1.80;;
21233;SDS011;10774;42.178;26.578;2023-08-01T12:36:10;1.95;;;1.85;;
21233;SDS011;10774;42.178;26.578;2023-08-01T12:38:35;3.08;;;1.90;;
21233;SDS011;10774;42.178;26.578;2023-08-01T12:41:01;2.40;;;2.20;;
21233;SDS011;10774;42.178;26.578;2023-08-01T12:43:26;3.78;;;2.00;;
21233;SDS011;10774;42.178;26.578;2023-08-01T12:45:52;2.78;;;2.17;;
21233;SDS011;10774;42.178;26.578;2023-08-01T12:48:18;2.30;;;2.10;;
21233;SDS011;10774;42.178;26.578;2023-08-01T12:50:46;2.30;;;2.10;;
21233;SDS011;10774;42.178;26.578;2023-08-01T12:53:13;2.05;;;1.90;;
21233;SDS011;10774;42.178;26.578;2023-08-01T12:55:38;3.17;;;2.10;;
21233;SDS011;10774;42.178;26.578;2023-08-01T12:58:07;2.20;;;2.00;;
21233;SDS011;10774;42.178;26.578;2023-08-01T13:00:33;1.90;;;1.80;;
21233;SDS011;10774;42.178;26.578;2023-08-01T13:02:58;2.28;;;2.08;;
21233;SDS011;10774;42.178;26.578;2023-08-01T13:05:24;2.10;;;1.90;;
21233;SDS011;10774;42.178;26.578;2023-08-01T13:07:49;3.22;;;2.10;;
21233;SDS011;10774;42.178;26.578;2023-08-01T13:10:15;2.35;;;2.13;;
21233;SDS011;10774;42.178;26.578;2023-08-01T13:12:41;2.17;;;1.98;;
21233;SDS011;10774;42.178;26.578;2023-08-01T13:15:08;4.55;;;2.10;;
21233;SDS011;10774;42.178;26.578;2023-08-01T13:17:33;2.30;;;2.10;;
21233;SDS011;10774;42.178;26.578;2023-08-01T13:19:59;3.13;;;2.05;;
21233;SDS011;10774;42.178;26.578;2023-08-01T13:22:25;2.50;;;1.67;;
21233;SDS011;10774;42.178;26.578;2023-08-01T13:24:50;2.55;;;2.22;;
21233;SDS011;10774;42.178;26.578;2023-08-01T13:27:15;2.60;;;1.80;;
21233;SDS011;10774;42.178;26.578;2023-08-01T13:29:41;2.08;;;1.88;;
21233;SDS011;10774;42.178;26.578;2023-08-01T13:32:06;2.83;;;1.80;;
21233;SDS011;10774;42.178;26.578;2023-08-01T13:34:32;3.33;;;1.83;;
21233;SDS011;10774;42.178;26.578;2023-08-01T13:39:25;1.90;;;1.80;;
21233;SDS011;10774;42.178;26.578;2023-08-01T13:41:51;5.13;;;1.88;;
21233;SDS011;10774;42.178;26.578;2023-08-01T13:44:16;33.92;;;19.58;;
21233;SDS011;10774;42.178;26.578;2023-08-01T13:46:42;20.63;;;13.20;;
21233;SDS011;10774;42.178;26.578;2023-08-01T13:49:07;14.13;;;10.48;;
21233;SDS011;10774;42.178;26.578;2023-08-01T13:51:33;8.52;;;6.40;;
21233;SDS011;10774;42.178;26.578;2023-08-01T13:53:58;4.35;;;3.85;;
21233;SDS011;10774;42.178;26.578;2023-08-01T13:56:25;6.18;;;5.57;;
21233;SDS011;10774;42.178;26.578;2023-08-01T13:58:52;5.30;;;2.42;;
21233;SDS011;10774;42.178;26.578;2023-08-01T14:01:17;2.70;;;2.10;;
21233;SDS011;10774;42.178;26.578;2023-08-01T14:03:44;1.50;;;1.40;;
21233;SDS011;10774;42.178;26.578;2023-08-01T14:06:10;3.78;;;2.40;;
21233;SDS011;10774;42.178;26.578;2023-08-01T14:08:37;4.22;;;2.17;;
21233;SDS011;10774;42.178;26.578;2023-08-01T14:11:05;1.92;;;1.50;;
21233;SDS011;10774;42.178;26.578;2023-08-01T14:13:31;1.60;;;1.50;;
21233;SDS011;10774;42.178;26.578;2023-08-01T14:15:57;2.25;;;1.65;;
21233;SDS011;10774;42.178;26.578;2023-08-01T14:18:23;3.90;;;1.88;;
21233;SDS011;10774;42.178;26.578;2023-08-01T14:20:49;3.08;;;1.70;;
21233;SDS011;10774;42.178;26.578;2023-08-01T14:23:14;2.38;;;2.03;;
21233;SDS011;10774;42.178;26.578;2023-08-01T14:25:40;2.63;;;1.67;;
21233;SDS011;10774;42.178;26.578;2023-08-01T14:28:06;1.95;;;1.70;;
21233;SDS011;10774;42.178;26.578;2023-08-01T14:30:31;2.80;;;1.60;;
21233;SDS011;10774;42.178;26.578;2023-08-01T14:33:00;3.72;;;1.40;;
21233;SDS011;10774;42.178;26.578;2023-08-01T14:35:26;1.92;;;1.63;;
21233;SDS011;10774;42.178;26.578;2023-08-01T14:37:52;2.58;;;1.63;;
21233;SDS011;10774;42.178;26.578;2023-08-01T14:40:18;2.35;;;1.80;;
21233;SDS011;10774;42.178;26.578;2023-08-01T14:42:43;2.97;;;1.83;;